Time;durP1;ratioP1;P1;durP2;ratioP2;P2;SDS_P1;SDS_P2;PMS_P1;PMS_P2;Temp;Humidity;BMP_temperature;BMP_pressure;BME280_temperature;BME280_humidity;BME280_pressure;Samples;Min_cycle;Max_cycle;Signal;HPM_P1;HPM_P2
2021/07/05 00:00:05;;;;;;;;;;;;;;;17.11;100.00;100240.56;5072630;28;19935;-68
2021/07/05 00:02:34;;;;;;;;;;;;;;;17.09;100.00;100231.66;5071303;28;19924;-68
2021/07/05 00:05:00;;;;;;;;;;;;;;;17.07;100.00;100229.09;5072511;28;19935;-68
2021/07/05 00:07:26;;;;;;;;;;;;;;;17.03;100.00;100228.59;5072227;28;19928;-68
2021/07/05 00:09:52;;;;;;;;;;;;;;;16.98;100.00;100225.56;5072242;28;19924;-68
2021/07/05 00:12:19;;;;;;;;;;;;;;;16.93;100.00;100225.25;5072430;28;20023;-68
2021/07/05 00:14:45;;;;;;;;;;;;;;;16.88;100.00;100227.63;5072406;28;19925;-67
2021/07/05 00:17:11;;;;;;;;;;;;;;;16.84;100.00;100227.13;5071926;28;19962;-68
2021/07/05 00:19:39;;;;;;;;;;;;;;;16.78;100.00;100232.44;5072384;28;19960;-68
2021/07/05 00:22:05;;;;;;;;;;;;;;;16.75;100.00;100230.91;5072178;28;19963;-68
2021/07/05 00:24:31;;;;;;;;;;;;;;;16.75;100.00;100219.97;5072189;28;20345;-67
2021/07/05 00:26:58;;;;;;;;;;;;;;;16.76;100.00;100226.31;5071931;28;19955;-67
2021/07/05 00:29:24;;;;;;;;;;;;;;;16.68;100.00;100219.81;5070947;28;19925;-68
2021/07/05 00:31:50;;;;;;;;;;;;;;;16.60;100.00;100236.28;5071801;28;20015;-67
2021/07/05 00:34:17;;;;;;;;;;;;;;;16.60;100.00;100233.53;5071748;28;19986;-67
2021/07/05 00:36:44;;;;;;;;;;;;;;;16.56;100.00;100235.78;5070700;28;20450;-67
2021/07/05 00:39:11;;;;;;;;;;;;;;;16.51;100.00;100226.38;5070588;28;20594;-67
2021/07/05 00:41:37;;;;;;;;;;;;;;;16.49;100.00;100229.31;5071722;28;19976;-67
2021/07/05 00:44:03;;;;;;;;;;;;;;;16.48;100.00;100237.69;5071731;28;20364;-67
2021/07/05 00:46:30;;;;;;;;;;;;;;;16.48;100.00;100235.81;5071778;28;20395;-68
2021/07/05 00:48:56;;;;;;;;;;;;;;;16.46;100.00;100229.66;5071334;28;20308;-67
2021/07/05 00:51:23;;;;;;;;;;;;;;;16.38;100.00;100227.78;5070192;28;20026;-67
2021/07/05 00:53:51;;;;;;;;;;;;;;;16.32;100.00;100235.84;5071686;28;20011;-67
2021/07/05 00:56:17;;;;;;;;;;;;;;;16.27;100.00;100230.88;5070815;28;20019;-67
2021/07/05 00:58:44;;;;;;;;;;;;;;;16.25;100.00;100219.25;5070223;28;20109;-67
2021/07/05 01:01:10;;;;;;;;;;;;;;;16.21;100.00;100218.75;5071534;28;20431;-67
2021/07/05 01:03:37;;;;;;;;;;;;;;;16.21;100.00;100223.38;5071400;28;20023;-67
2021/07/05 01:06:04;;;;;;;;;;;;;;;16.18;100.00;100224.59;5071509;28;19930;-67
2021/07/05 01:08:30;;;;;;;;;;;;;;;16.16;100.00;100226.63;5070445;28;19955;-67
2021/07/05 01:10:58;;;;;;;;;;;;;;;16.17;100.00;100225.59;5071152;28;19932;-67
2021/07/05 01:13:24;;;;;;;;;;;;;;;16.16;100.00;100228.53;5070113;28;20016;-67
2021/07/05 01:15:50;;;;;;;;;;;;;;;16.13;100.00;100221.50;5071173;28;20015;-67
2021/07/05 01:18:17;;;;;;;;;;;;;;;16.11;100.00;100218.06;5071027;28;19929;-67
2021/07/05 01:20:43;;;;;;;;;;;;;;;16.11;100.00;100218.06;5070947;28;20337;-67
2021/07/05 01:23:11;;;;;;;;;;;;;;;16.13;100.00;100213.28;5071229;28;19967;-67
2021/07/05 01:25:38;;;;;;;;;;;;;;;16.15;100.00;100213.94;5070931;28;20388;-67
2021/07/05 01:28:07;;;;;;;;;;;;;;;16.15;100.00;100213.94;5071050;28;20284;-67
2021/07/05 01:30:33;;;;;;;;;;;;;;;16.14;100.00;100212.28;5070921;28;20384;-67
2021/07/05 01:33:01;;;;;;;;;;;;;;;16.14;100.00;100212.28;5070978;28;19940;-67
2021/07/05 01:35:27;;;;;;;;;;;;;;;16.15;100.00;100213.94;5071027;28;19925;-67
2021/07/05 01:37:54;;;;;;;;;;;;;;;16.14;100.00;100209.53;5070891;28;19924;-67
2021/07/05 01:40:22;;;;;;;;;;;;;;;16.08;100.00;100207.47;5071023;28;19936;-67
2021/07/05 01:42:51;;;;;;;;;;;;;;;16.03;100.00;100209.88;5071184;28;19924;-67
2021/07/05 01:45:17;;;;;;;;;;;;;;;16.03;100.00;100209.88;5069413;28;19932;-67
2021/07/05 01:47:44;;;;;;;;;;;;;;;16.03;100.00;100204.41;5070930;28;19932;-67
2021/07/05 01:50:10;;;;;;;;;;;;;;;16.05;100.00;100205.09;5070853;28;20375;-67
2021/07/05 01:52:37;;;;;;;;;;;;;;;16.06;100.00;100206.78;5070820;28;19986;-67
2021/07/05 01:55:04;;;;;;;;;;;;;;;16.01;100.00;100195.53;5071007;28;20002;-67
2021/07/05 01:57:33;;;;;;;;;;;;;;;15.97;100.00;100200.47;5070661;28;20027;-67
2021/07/05 02:00:01;;;;;;;;;;;;;;;16.00;100.00;100199.28;5070907;28;20422;-67
2021/07/05 02:02:27;;;;;;;;;;;;;;;15.99;100.00;100192.94;5070713;28;19967;-67
2021/07/05 02:04:53;;;;;;;;;;;;;;;15.96;100.00;100186.97;5070696;28;19955;-67
2021/07/05 02:07:20;;;;;;;;;;;;;;;15.89;100.00;100186.81;5070347;28;19959;-67
2021/07/05 02:09:46;;;;;;;;;;;;;;;15.84;100.00;100179.09;5070734;28;19978;-67
2021/07/05 02:12:13;;;;;;;;;;;;;;;15.80;100.00;100191.41;5070719;28;20001;-67
2021/07/05 02:14:41;;;;;;;;;;;;;;;15.74;100.00;100183.88;5070914;28;19982;-67
2021/07/05 02:17:08;;;;;;;;;;;;;;;15.68;100.00;100184.56;5070476;28;19925;-67
2021/07/05 02:19:34;;;;;;;;;;;;;;;15.62;100.00;100180.63;5071944;28;19933;-67
2021/07/05 02:22:01;;;;;;;;;;;;;;;15.56;100.00;100176.69;5074574;28;19928;-68
2021/07/05 02:24:27;;;;;;;;;;;;;;;15.48;100.00;100173.94;5073972;28;19963;-68
2021/07/05 02:26:54;;;;;;;;;;;;;;;15.45;100.00;100189.84;5074274;28;20336;-68
2021/07/05 02:29:20;;;;;;;;;;;;;;;15.38;100.00;100182.31;5074409;28;19924;-68
2021/07/05 02:31:48;;;;;;;;;;;;;;;15.37;100.00;100188.81;5073954;28;20013;-68
2021/07/05 02:34:14;;;;;;;;;;;;;;;15.34;100.00;100182.81;5074168;28;20350;-69
2021/07/05 02:36:40;;;;;;;;;;;;;;;15.30;100.00;100189.66;5073827;28;20018;-68
2021/07/05 02:39:07;;;;;;;;;;;;;;;15.31;100.00;100199.56;5074265;28;20019;-68
2021/07/05 02:41:33;;;;;;;;;;;;;;;15.37;100.00;100190.69;5073928;28;20377;-68
2021/07/05 02:44:00;;;;;;;;;;;;;;;15.38;100.00;100189.69;5073748;28;20340;-68
2021/07/05 02:46:26;;;;;;;;;;;;;;;15.37;100.00;100198.91;5073959;28;20044;-68
2021/07/05 02:48:54;;;;;;;;;;;;;;;15.35;100.00;100190.00;5073788;28;20015;-68
2021/07/05 02:51:20;;;;;;;;;;;;;;;15.35;100.00;100190.00;5073761;28;19975;-68
2021/07/05 02:53:46;;;;;;;;;;;;;;;15.31;100.00;100191.38;5073716;28;19955;-68
2021/07/05 02:56:13;;;;;;;;;;;;;;;15.29;100.00;100196.16;5073951;28;19956;-68
2021/07/05 02:58:39;;;;;;;;;;;;;;;15.29;100.00;100196.16;5073461;28;19963;-68
2021/07/05 03:01:07;;;;;;;;;;;;;;;15.27;100.00;100192.72;5073595;28;19967;-68
2021/07/05 03:03:33;;;;;;;;;;;;;;;15.29;100.00;100196.16;5072195;28;19928;-68
2021/07/05 03:06:01;;;;;;;;;;;;;;;15.30;100.00;100198.72;5073522;28;19924;-68
2021/07/05 03:08:27;;;;;;;;;;;;;;;15.29;100.00;100198.91;5073467;28;19959;-68
2021/07/05 03:10:54;;;;;;;;;;;;;;;15.27;100.00;100198.19;5073480;28;19960;-68
2021/07/05 03:13:21;;;;;;;;;;;;;;;15.29;100.00;100198.91;5073519;28;19924;-68
2021/07/05 03:15:48;;;;;;;;;;;;;;;15.29;100.00;100202.47;5073408;28;20027;-68
2021/07/05 03:18:14;;;;;;;;;;;;;;;15.29;100.00;100201.63;5073168;28;19964;-67
2021/07/05 03:20:44;;;;;;;;;;;;;;;15.31;100.00;100202.31;5073269;28;19956;-68
2021/07/05 03:23:12;;;;;;;;;;;;;;;15.35;100.00;100203.66;5073032;28;19970;-68
2021/07/05 03:25:39;;;;;;;;;;;;;;;15.39;100.00;100208.66;5073317;28;19975;-68
2021/07/05 03:28:06;;;;;;;;;;;;;;;15.46;100.00;100206.09;5073220;28;19925;-68
2021/07/05 03:30:33;;;;;;;;;;;;;;;15.52;100.00;100213.59;5072539;28;19932;-68
2021/07/05 03:33:00;;;;;;;;;;;;;;;15.60;100.00;100209.19;5073264;28;19924;-68
2021/07/05 03:35:27;;;;;;;;;;;;;;;15.68;100.00;100209.19;5073008;28;19928;-68
2021/07/05 03:37:54;;;;;;;;;;;;;;;15.75;100.00;100207.47;5073086;28;20007;-68
2021/07/05 03:40:22;;;;;;;;;;;;;;;15.85;100.00;100210.91;5072597;28;19974;-68
2021/07/05 03:42:50;;;;;;;;;;;;;;;15.95;100.00;100207.16;5073100;28;19959;-68
2021/07/05 03:45:17;;;;;;;;;;;;;;;16.01;100.00;100207.31;5073062;28;20036;-68
2021/07/05 03:47:43;;;;;;;;;;;;;;;16.11;100.00;100201.66;5072688;28;20032;-68
2021/07/05 03:50:11;;;;;;;;;;;;;;;16.24;100.00;100204.69;5073203;28;19952;-68
2021/07/05 03:52:38;;;;;;;;;;;;;;;16.48;100.00;100196.63;5072595;28;20355;-68
2021/07/05 03:55:05;;;;;;;;;;;;;;;16.72;100.00;100192.91;5072843;28;19932;-69
2021/07/05 03:57:32;;;;;;;;;;;;;;;16.87;100.00;100182.91;5071857;28;19974;-69
2021/07/05 03:59:59;;;;;;;;;;;;;;;17.01;100.00;100172.22;5072749;28;19979;-69
2021/07/05 04:02:25;;;;;;;;;;;;;;;17.13;100.00;100178.16;5072521;28;19963;-68
2021/07/05 04:04:54;;;;;;;;;;;;;;;17.21;100.00;100168.00;5072541;28;19931;-69
2021/07/05 04:07:21;;;;;;;;;;;;;;;17.31;100.00;100169.66;5072214;28;19924;-70
2021/07/05 04:09:47;;;;;;;;;;;;;;;17.36;100.00;100179.03;5072741;28;19928;-68
2021/07/05 04:12:16;;;;;;;;;;;;;;;17.40;100.00;100152.94;5072252;28;20031;-67
2021/07/05 04:14:44;;;;;;;;;;;;;;;17.47;100.00;100153.06;5072324;28;19947;-67
2021/07/05 04:17:10;;;;;;;;;;;;;;;17.50;100.00;100163.66;5071845;28;19962;-68
2021/07/05 04:19:36;;;;;;;;;;;;;;;17.52;100.00;100163.50;5072153;28;19959;-67
2021/07/05 04:22:03;;;;;;;;;;;;;;;17.51;100.00;100165.38;5072440;28;19971;-68
2021/07/05 04:24:30;;;;;;;;;;;;;;;17.54;100.00;100164.16;5072062;28;20031;-68
2021/07/05 04:26:56;;;;;;;;;;;;;;;17.61;100.00;100165.16;5071918;28;19971;-68
2021/07/05 04:29:22;;;;;;;;;;;;;;;17.64;100.00;100170.25;5072045;28;19963;-68
2021/07/05 04:31:50;;;;;;;;;;;;;;;17.68;100.00;100170.75;5071219;28;20307;-68
2021/07/05 04:34:16;;;;;;;;;;;;;;;17.72;100.00;100172.94;5070787;28;19975;-68
2021/07/05 04:36:43;;;;;;;;;;;;;;;17.77;100.00;100179.75;5071265;28;20015;-68
2021/07/05 04:39:09;;;;;;;;;;;;;;;17.81;100.00;100165.50;5071311;28;19967;-68
2021/07/05 04:41:36;;;;;;;;;;;;;;;17.84;100.00;100181.56;5070384;28;19924;-68
2021/07/05 04:44:02;;;;;;;;;;;;;;;17.88;100.00;100180.16;5071441;28;19924;-68
2021/07/05 04:46:28;;;;;;;;;;;;;;;17.98;100.00;100181.81;5071520;28;20012;-68
2021/07/05 04:48:56;;;;;;;;;;;;;;;18.10;100.00;100177.56;5071470;28;20027;-68
2021/07/05 04:51:24;;;;;;;;;;;;;;;18.32;100.00;100177.69;5069650;28;19978;-68
2021/07/05 04:53:50;;;;;;;;;;;;;;;18.51;100.00;100166.13;5070935;28;19970;-66
2021/07/05 04:56:17;;;;;;;;;;;;;;;18.70;100.00;100172.09;5071206;28;20019;-66
2021/07/05 04:58:43;;;;;;;;;;;;;;;18.87;100.00;100157.09;5069875;28;19997;-66
2021/07/05 05:01:09;;;;;;;;;;;;;;;19.09;100.00;100154.41;5070652;28;19960;-66
2021/07/05 05:03:35;;;;;;;;;;;;;;;19.33;100.00;100152.31;5070771;28;19935;-67
2021/07/05 05:06:03;;;;;;;;;;;;;;;19.57;100.00;100153.81;5071185;28;19967;-68
2021/07/05 05:08:29;;;;;;;;;;;;;;;19.67;100.00;100148.84;5070342;28;19932;-68
2021/07/05 05:10:56;;;;;;;;;;;;;;;19.77;100.00;100151.25;5071124;28;19978;-71
2021/07/05 05:13:22;;;;;;;;;;;;;;;19.75;100.00;100150.59;5070550;28;20053;-68
2021/07/05 05:15:48;;;;;;;;;;;;;;;19.70;100.00;100142.94;5070690;28;19928;-68
2021/07/05 05:18:15;;;;;;;;;;;;;;;19.61;100.00;100148.78;5070296;28;19963;-67
2021/07/05 05:20:41;;;;;;;;;;;;;;;19.52;100.00;100146.16;5069910;28;19925;-68
2021/07/05 05:23:09;;;;;;;;;;;;;;;19.60;100.00;100147.91;5070790;28;20214;-68
2021/07/05 05:25:35;;;;;;;;;;;;;;;19.64;100.00;100152.00;5071015;28;19986;-68
2021/07/05 05:28:01;;;;;;;;;;;;;;;19.71;100.00;100152.91;5070234;28;20440;-68
2021/07/05 05:30:28;;;;;;;;;;;;;;;19.79;100.00;100143.66;5071117;28;19932;-68
2021/07/05 05:32:55;;;;;;;;;;;;;;;19.97;100.00;100148.69;5070936;28;19990;-68
2021/07/05 05:35:22;;;;;;;;;;;;;;;20.09;100.00;100150.88;5067650;28;19975;-67
2021/07/05 05:37:50;;;;;;;;;;;;;;;20.14;100.00;100138.22;5056296;28;19925;-68
2021/07/05 05:40:18;;;;;;;;;;;;;;;20.32;100.00;100139.59;5064567;28;19931;-68
2021/07/05 05:42:44;;;;;;;;;;;;;;;20.54;100.00;100137.59;5071028;28;19964;-68
2021/07/05 05:45:11;;;;;;;;;;;;;;;20.79;100.00;100131.56;5070368;28;19967;-67
2021/07/05 05:47:37;;;;;;;;;;;;;;;20.96;100.00;100123.78;5069309;28;19928;-67
2021/07/05 05:50:04;;;;;;;;;;;;;;;21.10;100.00;100133.81;5070991;28;20014;-67
2021/07/05 05:52:31;;;;;;;;;;;;;;;21.06;100.00;100133.34;5068750;28;20395;-67
2021/07/05 05:54:57;;;;;;;;;;;;;;;21.27;100.00;100136.16;5073700;28;19924;-67
2021/07/05 05:57:28;;;;;;;;;;;;;;;21.39;100.00;100129.81;5074037;28;19990;-65
2021/07/05 05:59:56;;;;;;;;;;;;;;;21.66;100.00;100129.00;5074402;28;19924;-66
2021/07/05 06:02:23;;;;;;;;;;;;;;;22.06;100.00;100134.50;5073238;28;19925;-65
2021/07/05 06:04:49;;;;;;;;;;;;;;;22.49;100.00;100125.72;5073721;28;19932;-65
2021/07/05 06:07:15;;;;;;;;;;;;;;;22.72;100.00;100129.91;5074460;28;19925;-66
2021/07/05 06:09:42;;;;;;;;;;;;;;;22.90;100.00;100134.69;5074486;28;20392;-66
2021/07/05 06:12:08;;;;;;;;;;;;;;;23.00;100.00;100131.47;5074464;28;20429;-66
2021/07/05 06:14:36;;;;;;;;;;;;;;;23.16;100.00;100124.59;5074260;28;19967;-66
2021/07/05 06:17:02;;;;;;;;;;;;;;;23.40;100.00;100132.09;5074079;28;20443;-66
2021/07/05 06:19:29;;;;;;;;;;;;;;;23.40;100.00;100128.47;5073826;28;19925;-67
2021/07/05 06:21:55;;;;;;;;;;;;;;;23.29;100.00;100127.28;5072933;28;19964;-66
2021/07/05 06:24:21;;;;;;;;;;;;;;;23.20;100.00;100123.09;5073334;28;19925;-66
2021/07/05 06:26:48;;;;;;;;;;;;;;;23.24;100.00;100127.09;5073737;28;19963;-67
2021/07/05 06:29:14;;;;;;;;;;;;;;;23.55;100.00;100133.69;5073313;28;20356;-67
2021/07/05 06:31:41;;;;;;;;;;;;;;;23.69;100.00;100137.19;5074144;28;19970;-66
2021/07/05 06:34:08;;;;;;;;;;;;;;;23.75;100.00;100136.31;5073710;28;20011;-66
2021/07/05 06:36:35;;;;;;;;;;;;;;;23.85;100.00;100133.88;5072563;28;19990;-66
2021/07/05 06:39:02;;;;;;;;;;;;;;;23.82;100.00;100141.78;5072685;28;19931;-67
2021/07/05 06:41:28;;;;;;;;;;;;;;;24.04;100.00;100133.97;5073597;28;20036;-68
2021/07/05 06:43:54;;;;;;;;;;;;;;;24.10;100.00;100135.78;5073544;28;19924;-68
2021/07/05 06:46:21;;;;;;;;;;;;;;;23.98;100.00;100137.63;5073121;28;20343;-66
2021/07/05 06:48:49;;;;;;;;;;;;;;;23.85;100.00;100142.19;5072812;28;20029;-66
2021/07/05 06:51:15;;;;;;;;;;;;;;;24.04;100.00;100140.34;5073022;28;19931;-66
2021/07/05 06:53:41;;;;;;;;;;;;;;;24.11;100.00;100139.44;5073138;28;20247;-67
2021/07/05 06:56:08;;;;;;;;;;;;;;;24.35;100.00;100143.22;5073367;28;19978;-67
2021/07/05 06:58:34;;;;;;;;;;;;;;;24.18;100.00;100142.97;5072990;28;20022;-67
2021/07/05 07:01:01;;;;;;;;;;;;;;;23.97;100.00;100144.22;5073303;28;20026;-67
2021/07/05 07:03:28;;;;;;;;;;;;;;;23.80;100.00;100152.22;5072995;28;19967;-67
2021/07/05 07:05:56;;;;;;;;;;;;;;;23.61;100.00;100146.66;5072405;28;20023;-68
2021/07/05 07:08:22;;;;;;;;;;;;;;;23.72;100.00;100145.06;5072406;28;19932;-67
2021/07/05 07:10:48;;;;;;;;;;;;;;;23.87;100.00;100147.50;5072767;28;19925;-67
2021/07/05 07:13:15;;;;;;;;;;;;;;;24.34;100.00;100152.63;5071517;28;20403;-67
2021/07/05 07:15:46;;;;;;;;;;;;;;;24.37;100.00;100146.59;5072580;28;19924;-67
2021/07/05 07:18:22;;;;;;;;;;;;;;;24.35;100.00;100152.38;5073099;28;20314;-67
2021/07/05 07:20:48;;;;;;;;;;;;;;;24.03;100.00;100152.50;5072631;28;20361;-66
2021/07/05 07:23:16;;;;;;;;;;;;;;;23.89;100.00;100156.44;5073024;28;20149;-68
2021/07/05 07:25:42;;;;;;;;;;;;;;;23.94;100.00;100161.31;5072774;28;19967;-67
2021/07/05 07:28:08;;;;;;;;;;;;;;;24.09;100.00;100153.50;5072283;28;19972;-67
2021/07/05 07:30:35;;;;;;;;;;;;;;;24.67;100.00;100160.59;5072479;28;20189;-67
2021/07/05 07:33:01;;;;;;;;;;;;;;;24.94;100.00;100164.97;5072797;28;20385;-68
2021/07/05 07:35:27;;;;;;;;;;;;;;;24.52;100.00;100166.50;5072302;28;19924;-68
2021/07/05 07:37:54;;;;;;;;;;;;;;;24.53;100.00;100170.13;5072595;28;19959;-67
2021/07/05 07:40:22;;;;;;;;;;;;;;;24.53;100.00;100165.44;5072103;28;20023;-68
2021/07/05 07:42:49;;;;;;;;;;;;;;;24.69;100.00;100168.69;5072415;28;19964;-68
2021/07/05 07:45:16;;;;;;;;;;;;;;;24.83;100.00;100167.44;5071586;28;20364;-67
2021/07/05 07:47:43;;;;;;;;;;;;;;;25.09;100.00;100157.06;5072374;28;19967;-68
2021/07/05 07:50:10;;;;;;;;;;;;;;;24.64;100.00;100160.19;5072320;28;20019;-68
2021/07/05 07:52:37;;;;;;;;;;;;;;;24.26;100.00;100175.09;5070449;28;20039;-67
2021/07/05 07:55:04;;;;;;;;;;;;;;;23.74;100.00;100168.72;5072090;28;19931;-68
2021/07/05 07:57:32;;;;;;;;;;;;;;;23.53;100.00;100169.06;5070424;28;19933;-67
2021/07/05 07:59:58;;;;;;;;;;;;;;;23.30;100.00;100178.78;5071984;28;19924;-68
2021/07/05 08:02:24;;;;;;;;;;;;;;;23.03;100.00;100183.59;5071912;28;19983;-67
2021/07/05 08:04:50;;;;;;;;;;;;;;;22.96;100.00;100183.63;5071810;28;20467;-67
2021/07/05 08:07:17;;;;;;;;;;;;;;;22.92;100.00;100184.31;5071376;28;19985;-67
2021/07/05 08:09:43;;;;;;;;;;;;;;;23.05;100.00;100182.31;5071823;28;19925;-67
2021/07/05 08:12:11;;;;;;;;;;;;;;;23.00;100.00;100189.59;5071819;28;19928;-67
2021/07/05 08:14:39;;;;;;;;;;;;;;;22.92;100.00;100192.59;5071727;28;20443;-67
2021/07/05 08:17:05;;;;;;;;;;;;;;;22.99;100.00;100190.66;5071679;28;19956;-67
2021/07/05 08:19:32;;;;;;;;;;;;;;;23.10;100.00;100198.25;5069345;28;19959;-67
2021/07/05 08:21:58;;;;;;;;;;;;;;;23.01;100.00;100197.66;5071624;28;19931;-67
2021/07/05 08:24:26;;;;;;;;;;;;;;;22.89;100.00;100202.19;5069814;28;20019;-67
2021/07/05 08:26:52;;;;;;;;;;;;;;;22.77;100.00;100209.44;5070505;28;19964;-66
2021/07/05 08:29:18;;;;;;;;;;;;;;;22.47;100.00;100210.78;5070093;28;19971;-66
2021/07/05 08:31:46;;;;;;;;;;;;;;;22.18;100.00;100198.25;5071445;28;19978;-67
2021/07/05 08:34:12;;;;;;;;;;;;;;;22.06;100.00;100206.34;5071242;28;20027;-67
2021/07/05 08:36:40;;;;;;;;;;;;;;;22.16;100.00;100209.53;5071131;28;20509;-67
2021/07/05 08:39:07;;;;;;;;;;;;;;;21.68;100.00;100209.75;5070863;28;20345;-67
2021/07/05 08:41:33;;;;;;;;;;;;;;;21.74;100.00;100211.66;5070761;28;20056;-67
2021/07/05 08:44:00;;;;;;;;;;;;;;;21.62;100.00;100205.03;5070038;28;19947;-67
2021/07/05 08:46:27;;;;;;;;;;;;;;;21.44;100.00;100220.28;5070761;28;19924;-66
2021/07/05 08:48:54;;;;;;;;;;;;;;;21.28;100.00;100215.97;5070731;28;19924;-66
2021/07/05 08:51:21;;;;;;;;;;;;;;;21.47;100.00;100211.59;5070831;28;19968;-66
2021/07/05 08:53:48;;;;;;;;;;;;;;;21.50;100.00;100215.81;5071441;28;19985;-66
2021/07/05 08:56:15;;;;;;;;;;;;;;;21.31;100.00;100220.25;5070927;28;19974;-67
2021/07/05 08:58:42;;;;;;;;;;;;;;;21.12;100.00;100211.69;5060776;28;19978;-65
2021/07/05 09:01:09;;;;;;;;;;;;;;;20.92;100.00;100213.53;5071272;28;20352;-64
2021/07/05 09:03:36;;;;;;;;;;;;;;;20.83;100.00;100210.06;5070333;28;19932;-65
2021/07/05 09:06:15;;;;;;;;;;;;;;;20.67;100.00;100220.38;5070505;28;19967;-65
2021/07/05 09:08:41;;;;;;;;;;;;;;;20.60;100.00;100218.63;5069426;28;19924;-65
2021/07/05 09:11:08;;;;;;;;;;;;;;;20.67;100.00;100223.13;5051215;28;20019;-65
2021/07/05 09:13:45;;;;;;;;;;;;;;;20.62;100.00;100228.41;5063928;28;20348;-65
2021/07/05 09:16:11;;;;;;;;;;;;;;;20.47;100.00;100235.91;5070471;28;19925;-65
2021/07/05 09:18:43;;;;;;;;;;;;;;;20.22;100.00;100234.47;5069925;28;19928;-65
2021/07/05 09:21:11;;;;;;;;;;;;;;;19.93;100.00;100249.28;5070157;28;19932;-66
2021/07/05 09:23:45;;;;;;;;;;;;;;;19.86;100.00;100251.13;5070375;28;20420;-66
2021/07/05 09:26:17;;;;;;;;;;;;;;;19.76;100.00;100261.59;5070706;28;19982;-66
2021/07/05 09:28:43;;;;;;;;;;;;;;;19.64;100.00;100262.13;5068161;28;20367;-66
2021/07/05 09:31:10;;;;;;;;;;;;;;;19.61;100.00;100280.91;5070674;28;20019;-65
2021/07/05 09:33:44;;;;;;;;;;;;;;;19.51;100.00;100284.84;5069007;28;20377;-65
2021/07/05 09:36:19;;;;;;;;;;;;;;;19.47;100.00;100296.41;5070110;28;19956;-65
2021/07/05 09:38:47;;;;;;;;;;;;;;;19.29;100.00;100299.59;5070551;28;19956;-65
2021/07/05 09:41:18;;;;;;;;;;;;;;;19.19;100.00;100311.75;5070657;28;19947;-65
2021/07/05 09:43:44;;;;;;;;;;;;;;;19.06;100.00;100300.56;5070313;28;19925;-66
2021/07/05 09:46:11;;;;;;;;;;;;;;;18.99;100.00;100305.13;5069941;28;19929;-68
2021/07/05 09:48:43;;;;;;;;;;;;;;;18.79;100.00;100322.16;5068665;28;20382;-67
2021/07/05 09:51:09;;;;;;;;;;;;;;;18.72;100.00;100319.31;5070661;28;19924;-67
2021/07/05 09:53:39;;;;;;;;;;;;;;;18.48;100.00;100317.66;5069837;28;20383;-66
2021/07/05 09:56:23;;;;;;;;;;;;;;;18.42;100.00;100329.38;5070602;28;19956;-67
2021/07/05 09:58:50;;;;;;;;;;;;;;;18.29;100.00;100334.66;5069742;28;19924;-66
2021/07/05 10:01:35;;;;;;;;;;;;;;;18.30;100.00;100339.13;5070285;28;19963;-66
2021/07/05 10:04:03;;;;;;;;;;;;;;;18.24;100.00;100337.97;5070405;28;19936;-67
2021/07/05 10:06:29;;;;;;;;;;;;;;;18.16;100.00;100344.38;5070102;28;19924;-67
2021/07/05 10:08:56;;;;;;;;;;;;;;;18.12;100.00;100340.28;5070060;28;19932;-68
2021/07/05 10:11:23;;;;;;;;;;;;;;;18.19;100.00;100349.50;5070144;28;19974;-68
2021/07/05 10:13:50;;;;;;;;;;;;;;;18.12;100.00;100350.41;5070220;28;19925;-68
2021/07/05 10:16:16;;;;;;;;;;;;;;;18.06;100.00;100344.63;5070328;28;19963;-69
2021/07/05 10:18:43;;;;;;;;;;;;;;;18.12;100.00;100353.16;5069445;28;20078;-69
2021/07/05 10:21:09;;;;;;;;;;;;;;;18.18;100.00;100352.44;5070334;28;20011;-68
2021/07/05 10:23:37;;;;;;;;;;;;;;;18.08;100.00;100344.44;5070185;28;19963;-68
2021/07/05 10:26:05;;;;;;;;;;;;;;;18.07;100.00;100340.81;5070097;28;19931;-69
2021/07/05 10:28:34;;;;;;;;;;;;;;;18.03;100.00;100339.50;5069869;28;20475;-68
2021/07/05 10:31:01;;;;;;;;;;;;;;;18.14;100.00;100343.69;5068497;28;20307;-68
2021/07/05 10:33:28;;;;;;;;;;;;;;;18.39;100.00;100351.75;5069993;28;20039;-68
2021/07/05 10:35:55;;;;;;;;;;;;;;;18.66;100.00;100350.28;5069628;28;20391;-69
2021/07/05 10:38:23;;;;;;;;;;;;;;;18.87;100.00;100344.06;5069048;28;19974;-68
2021/07/05 10:40:50;;;;;;;;;;;;;;;19.01;100.00;100339.66;5071908;28;20374;-68
2021/07/05 10:43:17;;;;;;;;;;;;;;;19.06;100.00;100328.06;5073473;28;19964;-68
2021/07/05 10:45:46;;;;;;;;;;;;;;;18.88;100.00;100315.56;5073483;28;20005;-68
2021/07/05 10:48:14;;;;;;;;;;;;;;;19.03;100.00;100328.47;5073164;28;19924;-68
2021/07/05 10:50:50;;;;;;;;;;;;;;;19.16;100.00;100327.78;5073247;28;19928;-69
2021/07/05 10:53:19;;;;;;;;;;;;;;;19.20;100.00;100316.22;5073953;28;19962;-68
2021/07/05 10:55:46;;;;;;;;;;;;;;;19.32;100.00;100310.19;5072194;28;20026;-68
2021/07/05 10:58:17;;;;;;;;;;;;;;;19.52;100.00;100318.69;5073251;28;20030;-68
2021/07/05 11:00:46;;;;;;;;;;;;;;;19.68;100.00;100306.59;5072978;28;19985;-68
2021/07/05 11:03:12;;;;;;;;;;;;;;;19.70;100.00;100296.25;5073329;28;20383;-68
2021/07/05 11:05:42;;;;;;;;;;;;;;;19.85;100.00;100293.47;5073355;28;20425;-69
2021/07/05 11:08:18;;;;;;;;;;;;;;;20.00;100.00;100293.41;5073142;28;20418;-68
2021/07/05 11:10:45;;;;;;;;;;;;;;;20.00;100.00;100279.63;5072774;28;20383;-68
2021/07/05 11:13:11;;;;;;;;;;;;;;;20.10;100.00;100287.59;5073347;28;19924;-68
2021/07/05 11:16:01;;;;;;;;;;;;;;;20.23;100.00;100296.81;5072490;28;20015;-69
2021/07/05 11:18:46;;;;;;;;;;;;;;;20.31;100.00;100281.16;5057408;28;20011;-68
2021/07/05 11:21:35;;;;;;;;;;;;;;;20.50;100.00;100287.91;5072730;28;20080;-68
2021/07/05 11:24:13;;;;;;;;;;;;;;;20.37;100.00;100281.22;5100231;28;19929;-68
2021/07/05 11:26:41;;;;;;;;;;;;;;;20.40;100.00;100283.59;5072557;28;20407;-68
2021/07/05 11:29:23;;;;;;;;;;;;;;;20.39;100.00;100287.41;5072595;28;19959;-68
2021/07/05 11:31:50;;;;;;;;;;;;;;;20.34;100.00;100289.06;5073419;28;19931;-69
2021/07/05 11:34:26;;;;;;;;;;;;;;;20.12;100.00;100294.56;5072491;28;19986;-68
2021/07/05 11:37:21;;;;;;;;;;;;;;;20.26;100.00;100313.97;5072528;28;20024;-68
2021/07/05 11:39:49;;;;;;;;;;;;;;;20.39;100.00;100298.44;5072362;28;19939;-68
2021/07/05 11:42:20;;;;;;;;;;;;;;;20.55;100.00;100297.28;5072175;28;19960;-68
2021/07/05 11:44:46;;;;;;;;;;;;;;;20.56;100.00;100284.34;5072856;28;19924;-68
2021/07/05 11:47:33;;;;;;;;;;;;;;;20.68;100.00;100282.72;5072135;28;19929;-68
2021/07/05 11:50:14;;;;;;;;;;;;;;;20.62;100.00;100290.94;5071295;28;20364;-68
2021/07/05 11:52:45;;;;;;;;;;;;;;;20.37;100.00;100286.75;5051929;28;20038;-67
2021/07/05 11:55:12;;;;;;;;;;;;;;;20.30;100.00;100290.50;5084400;28;19929;-67
2021/07/05 11:57:44;;;;;;;;;;;;;;;20.02;100.00;100283.06;5070552;28;20358;-66
2021/07/05 12:00:11;;;;;;;;;;;;;;;19.97;100.00;100296.56;5071445;28;20007;-69
2021/07/05 12:02:37;;;;;;;;;;;;;;;19.93;100.00;100284.25;5072346;28;20380;-69
2021/07/05 12:05:06;;;;;;;;;;;;;;;20.04;100.00;100289.22;5071916;28;19963;-68
2021/07/05 12:07:32;;;;;;;;;;;;;;;20.17;100.00;100291.25;5072044;28;20457;-70
2021/07/05 12:10:00;;;;;;;;;;;;;;;20.39;100.00;100286.53;5071927;28;19959;-69
2021/07/05 12:12:29;;;;;;;;;;;;;;;20.61;100.00;100275.47;5071414;28;20325;-69
2021/07/05 12:14:56;;;;;;;;;;;;;;;20.87;100.00;100270.16;5105011;28;19925;-69
2021/07/05 12:17:22;;;;;;;;;;;;;;;21.00;100.00;100252.81;5071480;28;19983;-69
2021/07/05 12:19:51;;;;;;;;;;;;;;;21.15;100.00;100260.97;5071948;28;20031;-68
2021/07/05 12:22:18;;;;;;;;;;;;;;;21.43;100.00;100250.84;5071728;28;20388;-69
2021/07/05 12:24:45;;;;;;;;;;;;;;;21.57;100.00;100244.34;5070436;28;20364;-69
2021/07/05 12:27:14;;;;;;;;;;;;;;;22.07;100.00;100246.75;5071726;28;19928;-69
2021/07/05 12:29:42;;;;;;;;;;;;;;;23.04;100.00;100224.06;5070435;28;20330;-68